TAF KVRB
AMD KVRB 270611Z 2706/2806 30004KT P6SM SCT025 SCT050 SCT250 TEMPO 2706/2708 SCT018 BKN025 BKN040 FM271400 34007KT P6SM SCT250 FM271800 01009KT P6SM SCT250 FM280000 VRB04KT P6SM FEW180 SCT250=
METAR KVRB
WC KVRB
WS KVRB
WV KVRB